Carl Fisher, Florida
Current Conditions -  °F | °C
As of 9:56 AM on Wednesday 26 Nov 2014 (Local Time) from KMIA Reporting Station
Overcast Overcast  
Wind Chill: 79°   Ceiling: 2500
Heat Index: 82°   Visibility: 10mi
Dew Point: 73°   Wind: 12mph
Humidity: 82%   Direction: 270°W
Pressure: 30.06"   Gusts: NA
Location:  25.791°N, 80.1427°W
Report Text: KMIA 261456Z 27010KT 10SM SCT010 BKN025 OVC250 26/23 A3006 RMK AO2 CB DSNT S-SW MOV NE T02610228
Loading
Personal Weather Stations






























Interactive Weather Map New forecast layout! Learn more

10-Day Weather Forecast

Advertisements
Track Severe Weather on mobile